Time;durP1;ratioP1;P1;durP2;ratioP2;P2;SDS_P1;SDS_P2;PMS_P1;PMS_P2;Temp;Humidity;BMP_temperature;BMP_pressure;BME280_temperature;BME280_humidity;BME280_pressure;Samples;Min_cycle;Max_cycle;Signal;HPM_P1;HPM_P2
2023/05/02 00:01:52;;;;;;;42.55;21.73;;;;;;;10.02;90.39;101920.34;6127637;23;20409;-76
2023/05/02 00:04:18;;;;;;;35.58;20.70;;;;;;;10.04;90.02;101924.72;6078259;23;20017;-76
2023/05/02 00:06:47;;;;;;;35.60;21.30;;;;;;;10.01;90.08;101924.72;6100376;23;20013;-75
2023/05/02 00:09:14;;;;;;;31.50;19.08;;;;;;;9.98;90.05;101932.53;6080672;23;20002;-75
2023/05/02 00:11:40;;;;;;;30.58;18.80;;;;;;;9.98;90.20;101943.00;6127645;23;20344;-76
2023/05/02 00:14:05;;;;;;;27.00;17.48;;;;;;;9.98;89.63;101943.00;6127664;23;20019;-75
2023/05/02 00:16:31;;;;;;;26.27;16.90;;;;;;;9.92;89.87;101939.47;6079638;23;20033;-76
2023/05/02 00:18:57;;;;;;;27.92;17.70;;;;;;;9.91;89.53;101940.31;6126563;23;20018;-76
2023/05/02 00:21:22;;;;;;;28.23;16.70;;;;;;;9.87;89.34;101942.06;6102472;23;20092;-75
2023/05/02 00:23:50;;;;;;;26.70;16.55;;;;;;;9.84;89.37;101939.38;6079494;23;20383;-77
2023/05/02 00:26:15;;;;;;;26.83;17.13;;;;;;;9.82;89.66;101935.88;6102027;23;20040;-76
2023/05/02 00:28:41;;;;;;;25.00;16.10;;;;;;;9.80;89.84;101950.72;6103176;23;20009;-76
2023/05/02 00:31:06;;;;;;;26.40;16.05;;;;;;;9.75;89.93;101947.16;6102883;23;20037;-76
2023/05/02 00:33:32;;;;;;;27.15;16.15;;;;;;;9.75;90.09;101950.66;6079471;23;20093;-76
2023/05/02 00:35:57;;;;;;;23.50;16.05;;;;;;;9.73;90.13;101954.13;6100687;23;20137;-76
2023/05/02 00:38:23;;;;;;;25.63;15.85;;;;;;;9.73;89.71;101951.53;6103843;23;20339;-77
2023/05/02 00:40:52;;;;;;;26.98;15.75;;;;;;;9.73;90.13;101957.63;6129582;23;20386;-76
2023/05/02 00:43:20;;;;;;;28.20;16.05;;;;;;;9.69;89.71;101948.84;6129360;23;20016;-76
2023/05/02 00:45:46;;;;;;;26.73;16.50;;;;;;;9.66;89.96;101954.06;6104810;23;20420;-76
2023/05/02 00:48:12;;;;;;;26.77;16.80;;;;;;;9.65;89.49;101957.53;6104380;23;20025;-76
2023/05/02 00:50:40;;;;;;;27.83;16.15;;;;;;;9.63;89.12;101958.41;6128000;23;20008;-76
2023/05/02 00:53:07;;;;;;;26.85;16.55;;;;;;;9.60;89.52;101948.78;6128833;23;20152;-76
2023/05/02 00:55:33;;;;;;;28.27;16.98;;;;;;;9.61;89.24;101952.25;6128240;23;20016;-76
2023/05/02 00:58:01;;;;;;;27.83;17.35;;;;;;;9.58;89.52;101960.94;6080376;23;20396;-76
2023/05/02 01:00:41;;;;;;;28.73;18.35;;;;;;;9.53;89.64;101958.28;6104615;23;20036;-76
2023/05/02 01:03:16;;;;;;;28.70;18.08;;;;;;;9.50;90.27;101958.25;6129575;23;20083;-76
2023/05/02 01:06:12;;;;;;;30.48;18.10;;;;;;;9.49;90.35;101953.00;6127420;23;20396;-76
2023/05/02 01:08:54;;;;;;;29.73;17.50;;;;;;;9.47;90.49;101962.59;6084959;23;20016;-77
2023/05/02 01:11:38;;;;;;;27.83;15.07;;;;;;;9.42;90.54;101959.03;6129313;23;20033;-76
2023/05/02 01:14:07;;;;;;;23.30;14.68;;;;;;;9.41;90.59;101959.88;6129853;23;20092;-77
2023/05/02 01:16:39;;;;;;;21.85;14.20;;;;;;;9.38;90.25;101959.88;6128960;23;20009;-77
2023/05/02 01:19:08;;;;;;;20.85;12.32;;;;;;;9.33;89.23;101958.06;6104991;23;20164;-75
2023/05/02 01:21:35;;;;;;;19.48;11.65;;;;;;;9.26;89.04;101956.25;6128581;23;20005;-76
2023/05/02 01:24:31;;;;;;;20.08;12.70;;;;;;;9.25;89.83;101958.84;6104779;23;20014;-76
2023/05/02 01:27:18;;;;;;;18.90;12.13;;;;;;;9.21;89.56;101960.56;6127582;23;20045;-77
2023/05/02 01:29:45;;;;;;;19.52;11.15;;;;;;;9.15;89.47;101950.00;6128496;23;20324;-76
2023/05/02 01:32:14;;;;;;;18.65;11.77;;;;;;;9.15;89.89;101952.63;6080685;23;20081;-76
2023/05/02 01:34:43;;;;;;;18.77;12.23;;;;;;;9.13;90.78;101972.66;6128083;23;20009;-76
2023/05/02 01:37:11;;;;;;;21.88;12.52;;;;;;;9.13;90.31;101956.97;6128012;23;20006;-76
2023/05/02 01:39:38;;;;;;;21.45;13.05;;;;;;;9.13;90.76;101970.03;6129046;23;20048;-76
2023/05/02 01:42:04;;;;;;;21.17;12.55;;;;;;;9.13;90.77;101964.81;6129292;23;20095;-76
2023/05/02 01:44:33;;;;;;;22.27;13.02;;;;;;;9.13;90.47;101968.28;6080495;23;20092;-77
2023/05/02 01:47:02;;;;;;;24.50;13.65;;;;;;;9.15;90.58;101970.94;6129113;23;20340;-76
2023/05/02 01:49:30;;;;;;;24.25;14.18;;;;;;;9.14;90.44;101963.97;6155031;23;20032;-76
2023/05/02 01:51:59;;;;;;;19.95;12.00;;;;;;;9.14;90.37;101974.41;6103789;23;20427;-77
2023/05/02 01:54:26;;;;;;;21.35;12.63;;;;;;;9.11;90.58;101977.88;6128477;23;20404;-76
2023/05/02 01:56:52;;;;;;;22.05;13.27;;;;;;;9.12;90.54;101977.03;6080476;23;20045;-76
2023/05/02 01:59:21;;;;;;;20.90;12.73;;;;;;;9.11;91.34;101975.25;6080771;23;20010;-77
2023/05/02 02:01:49;;;;;;;22.17;13.85;;;;;;;9.09;91.78;101982.19;6129248;23;20006;-77
2023/05/02 02:04:16;;;;;;;22.83;14.80;;;;;;;9.10;91.73;101988.31;6104824;23;20088;-77
2023/05/02 02:06:46;;;;;;;22.48;13.85;;;;;;;9.10;91.77;101990.94;6103632;23;20014;-77
2023/05/02 02:09:13;;;;;;;24.05;14.52;;;;;;;9.12;91.62;101991.81;6104808;23;20451;-78
2023/05/02 02:12:14;;;;;;;22.88;14.88;;;;;;;9.13;92.14;101998.81;6103683;23;20020;-77
2023/05/02 02:14:45;;;;;;;28.65;15.90;;;;;;;9.13;92.33;101991.81;6115725;23;20013;-77
2023/05/02 02:17:35;;;;;;;25.67;16.25;;;;;;;9.15;91.29;101987.50;6129001;23;20515;-77
2023/05/02 02:20:05;;;;;;;30.02;17.83;;;;;;;9.17;91.29;101995.38;6128818;23;20010;-78
2023/05/02 02:22:35;;;;;;;26.73;17.27;;;;;;;9.18;92.00;101999.75;6128154;23;20005;-78
2023/05/02 02:25:06;;;;;;;27.10;17.85;;;;;;;9.21;92.18;102001.50;6127513;23;20021;-78
2023/05/02 02:27:32;;;;;;;24.17;17.23;;;;;;;9.19;91.50;102001.50;6129061;23;20312;-78
2023/05/02 02:29:58;;;;;;;26.30;18.85;;;;;;;9.22;92.35;102004.13;6104273;23;20091;-78
2023/05/02 02:32:23;;;;;;;25.25;17.08;;;;;;;9.23;92.39;101999.81;6129095;23;20056;-77
2023/05/02 02:34:50;;;;;;;27.33;17.77;;;;;;;9.19;92.86;101999.78;6079019;23;20092;-77
2023/05/02 02:37:25;;;;;;;25.92;17.88;;;;;;;9.21;92.82;102012.88;6080610;23;20075;-77
2023/05/02 02:40:20;;;;;;;29.05;18.63;;;;;;;9.24;92.80;102005.06;6127657;23;20040;-77
2023/05/02 02:43:22;;;;;;;28.65;18.30;;;;;;;9.25;92.88;102004.22;6129293;23;20068;-77
2023/05/02 02:45:48;;;;;;;28.90;17.52;;;;;;;9.23;93.25;101998.06;6128288;23;20033;-77
2023/05/02 02:48:20;;;;;;;26.55;17.63;;;;;;;9.24;93.65;102010.28;6129181;23;20316;-77
2023/05/02 02:50:56;;;;;;;27.80;17.55;;;;;;;9.23;93.48;102011.13;6128126;23;20013;-77
2023/05/02 02:54:04;;;;;;;29.25;17.42;;;;;;;9.25;93.56;102019.00;6129240;23;20340;-77
2023/05/02 02:56:57;;;;;;;25.50;16.40;;;;;;;9.23;93.91;102018.97;6108104;23;20005;-77
2023/05/02 02:59:27;;;;;;;26.35;17.30;;;;;;;9.23;93.49;102018.13;6128818;23;20072;-76
2023/05/02 03:02:04;;;;;;;22.52;16.55;;;;;;;9.23;93.97;102023.34;6128311;23;20012;-75
2023/05/02 03:04:41;;;;;;;28.10;16.73;;;;;;;9.22;93.63;102022.44;6128730;23;20064;-75
2023/05/02 03:07:07;;;;;;;30.45;16.85;;;;;;;9.22;94.01;102030.28;6128239;23;20011;-76
2023/05/02 03:09:42;;;;;;;26.60;16.95;;;;;;;9.23;93.88;102034.69;6104180;23;20006;-76
2023/05/02 03:12:08;;;;;;;25.83;16.08;;;;;;;9.25;93.57;102029.47;6128472;23;20009;-76
2023/05/02 03:14:35;;;;;;;24.83;16.48;;;;;;;9.27;93.88;102039.09;6080097;23;20156;-76
2023/05/02 03:17:00;;;;;;;25.75;17.42;;;;;;;9.25;94.43;102046.06;6104154;23;20019;-76
2023/05/02 03:19:26;;;;;;;27.98;17.48;;;;;;;9.25;94.70;102046.06;6104215;23;20096;-76
2023/05/02 03:21:51;;;;;;;26.30;16.73;;;;;;;9.27;94.66;102046.06;6127866;23;20192;-76
2023/05/02 03:24:17;;;;;;;25.10;16.30;;;;;;;9.29;94.39;102050.44;6128894;23;20363;-76
2023/05/02 03:26:42;;;;;;;21.15;15.65;;;;;;;9.27;94.88;102049.56;6079921;23;20005;-76
2023/05/02 03:29:08;;;;;;;25.45;16.65;;;;;;;9.25;95.40;102048.66;6104058;23;20006;-76
2023/05/02 03:31:33;;;;;;;25.55;17.33;;;;;;;9.28;96.00;102055.66;6079097;23;20041;-76
2023/05/02 03:33:59;;;;;;;28.90;18.27;;;;;;;9.29;96.04;102063.50;6103830;23;20016;-76
2023/05/02 03:36:25;;;;;;;25.80;16.17;;;;;;;9.27;96.72;102065.25;6079600;23;20017;-76
2023/05/02 03:38:50;;;;;;;26.33;16.50;;;;;;;9.26;96.88;102068.72;6079723;23;20096;-76
2023/05/02 03:41:16;;;;;;;21.75;13.73;;;;;;;9.22;97.10;102082.59;6128469;23;20009;-76
2023/05/02 03:43:41;;;;;;;19.33;10.43;;;;;;;9.15;97.19;102081.66;6103752;23;20013;-76
2023/05/02 03:46:10;;;;;;;13.60;8.85;;;;;;;9.09;97.51;102078.94;6102646;23;20487;-76
2023/05/02 03:48:36;;;;;;;15.10;9.18;;;;;;;9.07;97.40;102085.03;6127981;23;20005;-77
2023/05/02 03:51:03;;;;;;;14.80;8.52;;;;;;;9.01;97.87;102077.97;6127216;23;20036;-75
2023/05/02 03:53:33;;;;;;;16.67;8.55;;;;;;;9.01;97.56;102078.84;6104841;23;20049;-77
2023/05/02 03:55:58;;;;;;;16.65;8.05;;;;;;;8.96;97.85;102077.88;6127276;23;20016;-76
2023/05/02 03:58:24;;;;;;;18.77;8.65;;;;;;;8.97;97.34;102079.66;6104039;23;20009;-76
2023/05/02 04:00:54;;;;;;;17.77;8.07;;;;;;;8.97;97.42;102091.84;6101807;23;20730;-76
2023/05/02 04:03:20;;;;;;;16.42;7.93;;;;;;;8.92;97.42;102091.78;6081409;23;20010;-76
2023/05/02 04:05:46;;;;;;;16.60;7.25;;;;;;;8.89;97.27;102090.84;6102629;23;20013;-76
2023/05/02 04:08:12;;;;;;;15.98;7.55;;;;;;;8.91;96.52;102102.22;6128255;23;20005;-77
2023/05/02 04:10:38;;;;;;;12.38;7.85;;;;;;;8.88;96.44;102108.28;6103942;23;20014;-76
2023/05/02 04:13:03;;;;;;;14.57;6.57;;;;;;;8.84;95.51;102106.47;6104532;23;20006;-77
2023/05/02 04:15:30;;;;;;;12.93;5.47;;;;;;;8.79;93.64;102115.97;6102940;23;20301;-77
2023/05/02 04:17:59;;;;;;;12.18;5.50;;;;;;;8.73;93.08;102115.88;6104102;23;20040;-76
2023/05/02 04:20:25;;;;;;;7.82;3.83;;;;;;;8.63;90.33;102113.13;6126810;23;20075;-75
2023/05/02 04:22:50;;;;;;;12.00;3.70;;;;;;;8.54;89.59;102118.16;6128753;23;20316;-77
2023/05/02 04:25:16;;;;;;;10.30;3.00;;;;;;;8.47;89.27;102126.75;6102685;23;20049;-77
2023/05/02 04:27:42;;;;;;;5.85;2.80;;;;;;;8.36;88.70;102129.16;6080151;23;20025;-77
2023/05/02 04:30:09;;;;;;;8.73;3.00;;;;;;;8.33;88.44;102135.19;6127401;23;20109;-76
2023/05/02 04:32:34;;;;;;;7.78;2.80;;;;;;;8.32;88.38;102138.66;6079628;23;20016;-76
2023/05/02 04:34:59;;;;;;;7.40;2.42;;;;;;;8.27;88.25;102137.69;6102777;23;20013;-76
2023/05/02 04:37:25;;;;;;;7.15;3.10;;;;;;;8.31;88.17;102146.47;6079189;23;20005;-77
2023/05/02 04:39:50;;;;;;;9.05;2.85;;;;;;;8.32;87.63;102158.69;6079127;23;20021;-76
2023/05/02 04:42:16;;;;;;;6.85;3.13;;;;;;;8.32;87.78;102164.78;6127763;23;20048;-76
2023/05/02 04:44:41;;;;;;;6.88;2.55;;;;;;;8.28;87.08;102156.84;6103950;23;20399;-77
2023/05/02 04:47:06;;;;;;;6.72;2.42;;;;;;;8.25;86.69;102156.81;6078914;23;20393;-76
2023/05/02 04:49:32;;;;;;;8.60;3.00;;;;;;;8.26;86.97;102169.00;6103933;23;20149;-77
2023/05/02 04:51:58;;;;;;;7.72;2.53;;;;;;;8.24;86.61;102168.97;6102254;23;20368;-77
2023/05/02 04:54:23;;;;;;;9.02;2.72;;;;;;;8.24;86.69;102174.19;6128106;23;20016;-77
2023/05/02 04:56:49;;;;;;;6.68;2.25;;;;;;;8.24;86.48;102178.53;6102892;23;20009;-77
2023/05/02 04:59:14;;;;;;;6.95;2.40;;;;;;;8.25;86.52;102177.69;6102673;23;20013;-75
2023/05/02 05:01:40;;;;;;;11.68;2.92;;;;;;;8.29;86.95;102182.13;6079291;23;20036;-77
2023/05/02 05:04:05;;;;;;;10.13;2.60;;;;;;;8.31;87.11;102186.50;6103806;23;20379;-75
2023/05/02 05:06:30;;;;;;;11.00;2.80;;;;;;;8.35;86.86;102195.31;6102868;23;20014;-76
2023/05/02 05:08:56;;;;;;;11.25;2.55;;;;;;;8.38;86.14;102207.53;6103631;23;20016;-76
2023/05/02 05:11:22;;;;;;;13.40;3.67;;;;;;;8.40;86.35;102198.88;6127600;23;20010;-75
2023/05/02 05:13:47;;;;;;;11.63;2.95;;;;;;;8.44;86.19;102199.81;6079260;23;20064;-76
2023/05/02 05:16:13;;;;;;;8.68;2.30;;;;;;;8.49;85.41;102200.78;6102970;23;20088;-76
2023/05/02 05:18:41;;;;;;;8.20;2.90;;;;;;;8.51;84.84;102206.94;6079952;23;20063;-76
2023/05/02 05:21:07;;;;;;;9.68;2.90;;;;;;;8.61;84.89;102218.47;6079106;23;20044;-76
2023/05/02 05:23:33;;;;;;;9.63;2.65;;;;;;;8.73;84.35;102207.34;6127284;23;20005;-76
2023/05/02 05:26:12;;;;;;;7.03;2.63;;;;;;;8.72;83.06;102216.03;6103993;23;20009;-75
2023/05/02 05:28:38;;;;;;;8.32;2.58;;;;;;;8.74;83.10;102224.78;6129528;23;20148;-76
2023/05/02 05:31:07;;;;;;;8.30;2.20;;;;;;;8.70;81.87;102226.44;6078764;23;20056;-77
2023/05/02 05:33:39;;;;;;;11.35;2.42;;;;;;;8.69;82.50;102232.53;6104327;23;20020;-76
2023/05/02 05:36:10;;;;;;;6.85;2.20;;;;;;;8.69;82.34;102236.88;6102561;23;20013;-76
2023/05/02 05:38:36;;;;;;;7.15;2.72;;;;;;;8.62;81.00;102234.16;6128689;23;20006;-75
2023/05/02 05:41:03;;;;;;;7.05;2.42;;;;;;;8.62;81.06;102242.00;6103881;23;20020;-74
2023/05/02 05:43:29;;;;;;;10.38;2.33;;;;;;;8.65;81.82;102241.19;6103697;23;20014;-76
2023/05/02 05:45:55;;;;;;;7.47;2.30;;;;;;;8.71;81.41;102243.91;6103408;23;20017;-76
2023/05/02 05:48:21;;;;;;;11.15;2.60;;;;;;;8.75;80.56;102248.34;6104185;23;20084;-75
2023/05/02 05:50:46;;;;;;;6.43;1.85;;;;;;;8.78;80.20;102247.53;6103315;23;20096;-76
2023/05/02 05:53:13;;;;;;;11.90;2.40;;;;;;;9.00;80.91;102246.16;6126627;23;20394;-76
2023/05/02 05:55:38;;;;;;;8.07;2.58;;;;;;;9.22;81.19;102250.00;6103683;23;20021;-76
2023/05/02 05:58:05;;;;;;;11.93;2.58;;;;;;;9.45;79.80;102249.50;6104803;23;20005;-77
2023/05/02 06:00:33;;;;;;;7.18;2.08;;;;;;;9.70;78.95;102259.47;6128642;23;20008;-76
2023/05/02 06:02:58;;;;;;;7.72;2.13;;;;;;;9.66;76.45;102257.66;6128545;23;20080;-75
2023/05/02 06:05:24;;;;;;;8.52;2.38;;;;;;;9.77;76.34;102268.31;6079813;23;20695;-75
2023/05/02 06:07:49;;;;;;;4.47;1.80;;;;;;;9.77;75.55;102265.69;6104505;23;20009;-76
2023/05/02 06:10:15;;;;;;;10.40;2.42;;;;;;;10.06;76.75;102275.69;6103777;23;20009;-76
2023/05/02 06:12:40;;;;;;;8.50;2.20;;;;;;;10.22;75.79;102280.25;6080694;23;20013;-77
2023/05/02 06:15:06;;;;;;;7.72;2.70;;;;;;;10.39;75.10;102277.00;6104728;23;20395;-76
2023/05/02 06:17:31;;;;;;;7.60;2.20;;;;;;;10.58;74.25;102285.97;6104664;23;20006;-75
2023/05/02 06:19:57;;;;;;;10.13;2.67;;;;;;;10.94;74.98;102286.34;6104180;23;20116;-76
2023/05/02 06:22:22;;;;;;;9.55;2.60;;;;;;;11.19;74.11;102288.34;6079781;23;20010;-75
2023/05/02 06:24:48;;;;;;;14.05;2.60;;;;;;;11.43;72.12;102284.13;6079918;23;20009;-76
2023/05/02 06:27:13;;;;;;;8.98;2.28;;;;;;;11.66;71.04;102289.56;6104283;23;20036;-76
2023/05/02 06:29:38;;;;;;;5.45;1.95;;;;;;;11.52;69.93;102294.72;6103262;23;20052;-75
2023/05/02 06:32:05;;;;;;;9.18;2.40;;;;;;;11.37;70.24;102300.72;6102493;23;20041;-76
2023/05/02 06:34:33;;;;;;;5.40;2.03;;;;;;;11.12;70.09;102311.84;6104906;23;20324;-76
2023/05/02 06:36:59;;;;;;;7.55;2.25;;;;;;;10.89;70.88;102305.53;6103970;23;20455;-76
2023/05/02 06:39:24;;;;;;;10.90;2.85;;;;;;;10.62;71.12;102320.97;6104086;23;20006;-77
2023/05/02 06:41:50;;;;;;;6.85;2.17;;;;;;;10.53;71.90;102321.72;6104224;23;20112;-75
2023/05/02 06:44:15;;;;;;;8.25;2.13;;;;;;;10.42;72.68;102332.06;6080727;23;20014;-76
2023/05/02 06:46:42;;;;;;;11.07;3.17;;;;;;;10.25;73.67;102337.06;6127306;23;20020;-75
2023/05/02 06:49:07;;;;;;;12.30;2.78;;;;;;;10.08;73.65;102339.44;6125885;23;20009;-75
2023/05/02 06:51:33;;;;;;;12.15;3.08;;;;;;;9.95;74.20;102337.50;6126625;23;20013;-75
2023/05/02 06:53:58;;;;;;;11.75;2.97;;;;;;;9.81;74.83;102339.91;6079819;23;20454;-76
2023/05/02 06:56:24;;;;;;;8.00;2.85;;;;;;;9.82;76.51;102346.91;6103800;23;20009;-76
2023/05/02 06:58:50;;;;;;;9.05;3.08;;;;;;;9.75;75.78;102350.28;6128734;23;20085;-75
2023/05/02 07:01:16;;;;;;;7.78;2.60;;;;;;;9.66;75.10;102338.81;6126485;23;20013;-75
2023/05/02 07:03:42;;;;;;;8.68;2.50;;;;;;;9.63;74.21;102341.38;6102943;23;20159;-76
2023/05/02 07:06:07;;;;;;;8.68;2.65;;;;;;;9.67;73.82;102351.06;6102802;23;20018;-76
2023/05/02 07:08:33;;;;;;;9.77;3.17;;;;;;;9.74;74.44;102356.38;6079734;23;20005;-76
2023/05/02 07:10:58;;;;;;;12.45;3.30;;;;;;;9.73;74.00;102362.50;6079076;23;20005;-75
2023/05/02 07:13:23;;;;;;;11.30;6.90;;;;;;;9.79;73.71;102362.56;6080206;23;20049;-77
2023/05/02 07:15:49;;;;;;;13.50;3.78;;;;;;;9.86;72.85;102370.53;6076786;23;20048;-76
2023/05/02 07:18:14;;;;;;;9.75;3.40;;;;;;;10.06;69.77;102373.47;6101461;23;20009;-76
2023/05/02 07:20:41;;;;;;;18.52;4.03;;;;;;;10.20;70.32;102388.50;6078235;23;20067;-76
2023/05/02 07:23:07;;;;;;;11.05;3.47;;;;;;;10.19;68.15;102384.13;6128385;23;20013;-75
2023/05/02 07:25:33;;;;;;;10.82;3.00;;;;;;;10.01;68.14;102393.47;6102759;23;20143;-74
2023/05/02 07:27:58;;;;;;;12.38;3.40;;;;;;;9.83;68.47;102390.56;6079687;23;20037;-73
2023/05/02 07:30:24;;;;;;;11.50;3.58;;;;;;;9.75;68.69;102406.13;6102819;23;20412;-75
2023/05/02 07:32:50;;;;;;;15.00;3.63;;;;;;;9.66;68.46;102398.13;6079034;23;20016;-76
2023/05/02 07:35:15;;;;;;;13.35;3.80;;;;;;;9.71;69.14;102413.06;6101263;23;20068;-77
2023/05/02 07:37:41;;;;;;;12.43;4.10;;;;;;;9.74;68.56;102408.72;6101852;23;20017;-76
2023/05/02 07:40:08;;;;;;;15.35;4.05;;;;;;;9.73;69.24;102409.59;6078007;23;20044;-75
2023/05/02 07:42:35;;;;;;;13.52;4.30;;;;;;;9.77;70.00;102404.44;6078004;23;20013;-76
2023/05/02 07:45:01;;;;;;;13.63;4.30;;;;;;;9.83;70.66;102407.16;6102348;23;20014;-76
2023/05/02 07:47:27;;;;;;;13.95;4.75;;;;;;;9.89;70.05;102415.09;6123971;23;20064;-75
2023/05/02 07:49:54;;;;;;;12.68;4.22;;;;;;;9.91;70.25;102411.63;6099251;23;20156;-76
2023/05/02 07:52:23;;;;;;;16.70;3.90;;;;;;;9.88;69.50;102412.47;6102090;23;20021;-76
2023/05/02 07:54:49;;;;;;;18.00;3.95;;;;;;;9.88;69.36;102415.06;6100947;23;20108;-77
2023/05/02 07:57:14;;;;;;;11.75;3.67;;;;;;;9.96;69.40;102418.72;6079854;23;20380;-76
2023/05/02 07:59:40;;;;;;;10.43;3.45;;;;;;;10.07;71.16;102418.91;6101816;23;20408;-77
2023/05/02 08:02:06;;;;;;;11.50;3.70;;;;;;;10.25;70.75;102418.28;6102821;23;20320;-76
2023/05/02 08:04:32;;;;;;;13.77;3.83;;;;;;;10.37;70.60;102426.38;6101979;23;20080;-76
2023/05/02 08:06:59;;;;;;;12.02;3.65;;;;;;;10.31;67.29;102420.97;6152066;23;20006;-75
2023/05/02 08:09:24;;;;;;;13.77;4.53;;;;;;;10.36;67.48;102427.22;6103372;23;20077;-76
2023/05/02 08:11:50;;;;;;;10.32;3.50;;;;;;;10.39;66.53;102429.88;6079092;23;20017;-75
2023/05/02 08:14:15;;;;;;;11.13;4.03;;;;;;;10.55;66.80;102441.44;6101192;23;20009;-76
2023/05/02 08:16:41;;;;;;;14.13;4.50;;;;;;;10.59;66.22;102442.38;6077694;23;20017;-75
2023/05/02 08:19:08;;;;;;;11.93;3.75;;;;;;;10.66;66.65;102444.22;6128038;23;20336;-76
2023/05/02 08:21:34;;;;;;;8.25;2.97;;;;;;;10.57;64.98;102447.63;6126579;23;20005;-75
2023/05/02 08:24:01;;;;;;;13.80;3.10;;;;;;;10.60;65.54;102444.13;6079850;23;20044;-75
2023/05/02 08:26:27;;;;;;;9.38;3.05;;;;;;;10.67;65.38;102440.72;6078591;23;20072;-75
2023/05/02 08:28:53;;;;;;;6.57;2.80;;;;;;;10.66;64.17;102451.19;6079648;23;20013;-75
2023/05/02 08:31:19;;;;;;;7.10;2.70;;;;;;;10.68;63.49;102452.13;6127858;23;20450;-76
2023/05/02 08:33:45;;;;;;;11.23;2.50;;;;;;;10.69;62.25;102449.50;6103776;23;20010;-76
2023/05/02 08:36:15;;;;;;;11.52;2.95;;;;;;;10.72;61.55;102465.28;6124771;23;20017;-75
2023/05/02 08:38:41;;;;;;;11.88;3.10;;;;;;;10.86;63.11;102464.56;6126651;23;20009;-76
2023/05/02 08:41:14;;;;;;;9.55;3.55;;;;;;;11.01;62.21;102463.91;6127258;23;20120;-75
2023/05/02 08:43:39;;;;;;;7.18;2.70;;;;;;;11.05;59.45;102474.44;6102245;23;20033;-75
2023/05/02 08:46:09;;;;;;;8.75;2.40;;;;;;;11.22;60.53;102476.38;6102369;23;20016;-76
2023/05/02 08:48:43;;;;;;;7.63;2.25;;;;;;;11.35;60.96;102475.69;6127066;23;20455;-76
2023/05/02 08:51:11;;;;;;;5.13;2.05;;;;;;;11.39;56.65;102468.72;6101486;23;20013;-76
2023/05/02 08:53:37;;;;;;;6.47;2.13;;;;;;;11.42;58.29;102474.88;6102179;23;20406;-75
2023/05/02 08:56:03;;;;;;;6.43;2.13;;;;;;;11.45;57.91;102468.78;6100333;23;20009;-75
2023/05/02 08:58:32;;;;;;;6.35;2.00;;;;;;;11.55;58.33;102477.63;6100483;23;20016;-76
2023/05/02 09:01:08;;;;;;;7.60;2.50;;;;;;;11.82;59.28;102473.53;6103249;23;20012;-76
2023/05/02 09:03:35;;;;;;;7.20;2.03;;;;;;;12.16;59.37;102479.97;6126481;23;20012;-76
2023/05/02 09:06:08;;;;;;;8.93;2.63;;;;;;;12.38;57.23;102483.63;6124601;23;20020;-76
2023/05/02 09:08:35;;;;;;;6.00;2.22;;;;;;;12.29;52.00;102480.94;6129533;23;20372;-77
2023/05/02 09:11:02;;;;;;;9.18;2.40;;;;;;;12.29;53.41;102486.22;6105132;23;20024;-75
2023/05/02 09:13:33;;;;;;;7.78;2.25;;;;;;;12.37;55.40;102494.13;6104504;23;20039;-76
2023/05/02 09:16:04;;;;;;;;;;;;;;;12.45;54.51;102492.44;6128739;23;20009;-75
2023/05/02 09:18:37;;;;;;;4.95;2.05;;;;;;;12.29;55.07;102499.34;6129416;23;19908;-76
2023/05/02 09:21:17;;;;;;;5.55;2.05;;;;;;;12.41;56.12;102507.34;6104257;23;20044;-76
2023/05/02 09:23:54;;;;;;;11.52;4.03;;;;;;;12.28;55.74;102508.09;6129421;23;20005;-76
2023/05/02 09:26:23;;;;;;;8.27;2.35;;;;;;;12.15;53.24;102514.13;6129386;23;20005;-75
2023/05/02 09:28:50;;;;;;;7.07;2.37;;;;;;;12.02;54.64;102519.25;6129660;23;20002;-76
2023/05/02 09:31:21;;;;;;;10.73;2.83;;;;;;;11.95;53.85;102522.69;6104169;23;20245;-76
2023/05/02 09:33:47;;;;;;;11.20;2.92;;;;;;;12.12;56.68;102521.13;6129348;23;20423;-76
2023/05/02 09:36:18;;;;;;;10.75;3.78;;;;;;;12.09;58.28;102528.09;6079043;23;20113;-76
2023/05/02 09:38:45;;;;;;;9.13;3.35;;;;;;;12.34;58.21;102528.28;6127995;23;20002;-77
2023/05/02 09:41:11;;;;;;;7.28;2.78;;;;;;;12.36;53.42;102531.84;6129222;23;20040;-76
2023/05/02 09:43:38;;;;;;;10.25;3.47;;;;;;;12.52;54.65;102535.47;6128114;23;20015;-76
2023/05/02 09:46:04;;;;;;;10.15;2.45;;;;;;;12.49;54.94;102531.03;6104214;23;20013;-76
2023/05/02 09:48:31;;;;;;;8.38;2.55;;;;;;;12.53;55.40;102538.09;6127983;23;20104;-77
2023/05/02 09:50:57;;;;;;;10.85;3.25;;;;;;;12.69;57.03;102536.44;6103630;23;20009;-76
2023/05/02 09:53:27;;;;;;;7.82;3.40;;;;;;;12.93;56.20;102545.34;6128326;23;20451;-77
2023/05/02 09:56:03;;;;;;;8.93;2.92;;;;;;;13.07;54.34;102541.03;6105077;23;20063;-76
2023/05/02 09:58:29;;;;;;;8.35;2.67;;;;;;;13.00;53.29;102539.25;6103550;23;20036;-76
2023/05/02 10:00:57;;;;;;;9.30;2.85;;;;;;;12.85;51.32;102536.56;6079063;23;20020;-77
2023/05/02 10:03:25;;;;;;;8.27;3.10;;;;;;;12.78;54.08;102544.38;6102973;23;20020;-76
2023/05/02 10:05:53;;;;;;;10.38;2.92;;;;;;;12.82;55.66;102550.56;6102021;23;20013;-76
2023/05/02 10:08:19;;;;;;;8.80;2.80;;;;;;;13.06;52.38;102543.66;6126958;23;20009;-76
2023/05/02 10:10:51;;;;;;;9.25;2.70;;;;;;;13.23;52.91;102551.66;6102425;23;20010;-76
2023/05/02 10:13:20;;;;;;;9.68;2.95;;;;;;;13.22;52.31;102542.88;6126554;23;20001;-76
2023/05/02 10:15:49;;;;;;;8.07;2.95;;;;;;;13.14;52.00;102553.34;6128312;23;20015;-76
2023/05/02 10:18:27;;;;;;;7.55;2.80;;;;;;;13.08;51.86;102558.59;6128378;23;20029;-75
2023/05/02 10:21:04;;;;;;;10.95;4.68;;;;;;;12.84;52.87;102548.81;6126562;23;20096;-76
2023/05/02 10:23:30;;;;;;;12.68;4.75;;;;;;;12.74;50.16;102547.88;6128977;23;20376;-76
2023/05/02 10:25:58;;;;;;;7.80;3.00;;;;;;;12.61;53.29;102556.53;6103558;23;20067;-76
2023/05/02 10:28:25;;;;;;;8.70;3.88;;;;;;;12.67;51.06;102556.59;6104045;23;20424;-76
2023/05/02 10:30:51;;;;;;;9.65;3.70;;;;;;;12.81;54.70;102554.06;6102854;23;20009;-76
2023/05/02 10:33:22;;;;;;;8.98;2.85;;;;;;;13.17;52.57;102557.75;6102795;23;20009;-76
2023/05/02 10:35:47;;;;;;;9.00;2.70;;;;;;;13.54;51.57;102560.59;6128173;23;20388;-76
2023/05/02 10:38:23;;;;;;;8.75;2.90;;;;;;;13.63;51.83;102562.38;6127263;23;20022;-74
2023/05/02 10:40:56;;;;;;;7.07;2.35;;;;;;;13.51;49.83;102564.06;6076619;23;20013;-76
2023/05/02 10:43:34;;;;;;;8.98;2.83;;;;;;;13.37;48.48;102564.91;6127273;23;20093;-75
2023/05/02 10:46:02;;;;;;;6.15;2.40;;;;;;;13.19;47.52;102561.28;6127745;23;20009;-77
2023/05/02 10:48:28;;;;;;;6.43;2.65;;;;;;;13.16;49.21;102563.91;6128270;23;20083;-77
2023/05/02 10:50:54;;;;;;;7.57;2.40;;;;;;;12.91;48.74;102560.25;6079955;23;20032;-78
2023/05/02 10:53:25;;;;;;;8.02;3.00;;;;;;;12.71;50.16;102561.00;6126162;23;20111;-76
2023/05/02 10:56:16;;;;;;;10.25;3.35;;;;;;;13.00;53.69;102560.28;6079886;23;20397;-76
2023/05/02 10:58:47;;;;;;;6.63;2.80;;;;;;;13.34;54.38;102561.38;6128154;23;20088;-77
2023/05/02 11:01:25;;;;;;;6.97;3.00;;;;;;;13.27;50.39;102561.31;6104439;23;20009;-78
2023/05/02 11:04:00;;;;;;;5.90;2.80;;;;;;;13.37;50.86;102560.50;6127128;23;20012;-79
2023/05/02 11:06:32;;;;;;;8.30;3.22;;;;;;;13.39;51.00;102561.41;6126182;23;20491;-80
2023/05/02 11:09:17;;;;;;;8.18;3.45;;;;;;;13.57;49.79;102568.50;6104760;23;20393;-78
2023/05/02 11:11:48;;;;;;;10.82;3.28;;;;;;;13.65;50.30;102572.03;6126377;23;20048;-80
2023/05/02 11:14:28;;;;;;;7.88;3.15;;;;;;;13.45;50.19;102579.00;6101907;23;20009;-79
2023/05/02 11:16:57;;;;;;;6.88;2.85;;;;;;;13.15;48.09;102580.56;6126564;23;20255;-78
2023/05/02 11:19:23;;;;;;;8.77;2.78;;;;;;;13.25;51.29;102576.25;6125461;23;20010;-80
2023/05/02 11:21:49;;;;;;;8.88;2.70;;;;;;;13.60;47.63;102578.16;6100260;23;20423;-77
2023/05/02 11:24:37;;;;;;;6.38;2.40;;;;;;;13.67;47.63;102575.53;6098615;23;20017;-75
2023/05/02 11:27:28;;;;;;;8.15;2.67;;;;;;;13.95;50.68;102587.91;6124589;23;20012;-75
2023/05/02 11:29:54;;;;;;;7.00;3.22;;;;;;;14.41;47.67;102584.44;6126737;23;20159;-74